Felix-Klein-Gymnasium, Gttingen, 150m NN
Wetterdaten: aktuell Mittwoch, 20.03.2019 00:15
Datum Zeit Temp. A. Feuchte A. Luftdruck Regen Wind Richtung Richtung Sonnenschein Taupunkt Windchill Windben
20.03.2019 00:15 0,5 C 84 % 1030,2 hPa 0,0 mm 0,7 km/h (0 Bft) W 281 0 min -1,9 C 0,5 C 4,8 km/h (1 Bft)
20.03.2019 00:00 0,7 C 83 % 1030,3 hPa 0,0 mm 0,0 km/h (0 Bft) NW 311 0 min -1,8 C 0,7 C 0,0 km/h (0 Bft)
19.03.2019 23:45 1,0 C 82 % 1030,2 hPa 0,0 mm 0,0 km/h (0 Bft) N 0 0 min -1,7 C 1,0 C 0,0 km/h (0 Bft)
19.03.2019 23:30 1,3 C 81 % 1030,2 hPa 0,0 mm 0,0 km/h (0 Bft) N 0 0 min -1,6 C 1,3 C 0,0 km/h (0 Bft)
19.03.2019 23:15 1,6 C 80 % 1030,1 hPa 0,0 mm 0,0 km/h (0 Bft) N 0 0 min -1,5 C 1,6 C 0,0 km/h (0 Bft)
19.03.2019 23:00 1,7 C 79 % 1029,9 hPa 0,0 mm 0,0 km/h (0 Bft) NW 311 0 min -1,5 C 1,7 C 0,0 km/h (0 Bft)
19.03.2019 22:45 1,9 C 79 % 1029,8 hPa 0,0 mm 0,0 km/h (0 Bft) NW 311 0 min -1,3 C 1,9 C 0,0 km/h (0 Bft)
19.03.2019 22:30 2,2 C 78 % 1029,8 hPa 0,0 mm 0,0 km/h (0 Bft) NW 311 0 min -1,2 C 2,2 C 0,0 km/h (0 Bft)
19.03.2019 22:15 3,0 C 75 % 1029,7 hPa 0,0 mm 0,0 km/h (0 Bft) NW 311 0 min -1,0 C 3,0 C 0,0 km/h (0 Bft)
19.03.2019 22:00 3,3 C 74 % 1029,6 hPa 0,0 mm 0,0 km/h (0 Bft) NW 311 0 min -0,9 C 3,3 C 0,0 km/h (0 Bft)
19.03.2019 21:45 3,4 C 73 % 1029,5 hPa 0,0 mm 0,0 km/h (0 Bft) NW 311 0 min -1,0 C 3,4 C 0,0 km/h (0 Bft)
19.03.2019 21:30 3,7 C 72 % 1029,3 hPa 0,0 mm 0,0 km/h (0 Bft) NW 311 0 min -0,9 C 3,7 C 0,0 km/h (0 Bft)
19.03.2019 21:15 4,3 C 70 % 1029,1 hPa 0,0 mm 0,0 km/h (0 Bft) NW 311 0 min -0,7 C 4,3 C 0,0 km/h (0 Bft)
19.03.2019 21:00 4,7 C 68 % 1028,9 hPa 0,0 mm 0,0 km/h (0 Bft) NW 311 0 min -0,7 C 4,7 C 0,0 km/h (0 Bft)
19.03.2019 20:45 4,8 C 67 % 1028,8 hPa 0,0 mm 0,0 km/h (0 Bft) NW 313 0 min -0,8 C 4,8 C 0,0 km/h (0 Bft)
19.03.2019 20:30 4,9 C 67 % 1028,8 hPa 0,0 mm 0,1 km/h (0 Bft) NW 313 0 min -0,7 C 4,9 C 4,8 km/h (1 Bft)
19.03.2019 20:15 5,3 C 65 % 1028,6 hPa 0,0 mm 0,0 km/h (0 Bft) N-NO 21 0 min -0,7 C 5,3 C 0,0 km/h (0 Bft)
19.03.2019 20:00 5,7 C 63 % 1028,4 hPa 0,0 mm 0,0 km/h (0 Bft) N-NO 32 0 min -0,8 C 5,7 C 0,0 km/h (0 Bft)
19.03.2019 19:45 6,2 C 61 % 1028,2 hPa 0,0 mm 0,0 km/h (0 Bft) NO 34 0 min -0,7 C 6,2 C 0,0 km/h (0 Bft)
19.03.2019 19:30 6,5 C 59 % 1028,2 hPa 0,0 mm 0,0 km/h (0 Bft) NO 34 0 min -0,9 C 6,5 C 0,0 km/h (0 Bft)
19.03.2019 19:15 6,7 C 59 % 1028,0 hPa 0,0 mm 0,0 km/h (0 Bft) NO 34 0 min -0,7 C 6,7 C 0,0 km/h (0 Bft)
19.03.2019 19:00 6,8 C 57 % 1027,8 hPa 0,0 mm 0,0 km/h (0 Bft) NO 34 0 min -1,1 C 6,8 C 0,0 km/h (0 Bft)
19.03.2019 18:45 7,0 C 56 % 1027,7 hPa 0,0 mm 0,0 km/h (0 Bft) N-NO 33 0 min -1,2 C 7,0 C 0,0 km/h (0 Bft)
19.03.2019 18:30 7,2 C 55 % 1027,5 hPa 0,0 mm 0,7 km/h (0 Bft) N-NO 33 0 min -1,2 C 7,2 C 6,4 km/h (2 Bft)
19.03.2019 18:15 7,3 C 54 % 1027,3 hPa 0,0 mm 3,4 km/h (1 Bft) NO 37 0 min -1,4 C 7,3 C 11,3 km/h (2 Bft)
19.03.2019 18:00 7,4 C 54 % 1027,0 hPa 0,0 mm 2,7 km/h (1 Bft) NO 42 0 min -1,3 C 7,4 C 11,3 km/h (2 Bft)
19.03.2019 17:45 7,4 C 53 % 1026,9 hPa 0,0 mm 4,6 km/h (1 Bft) N-NO 28 0 min -1,5 C 7,0 C 12,9 km/h (3 Bft)
19.03.2019 17:30 7,6 C 53 % 1026,7 hPa 0,0 mm 4,4 km/h (1 Bft) NO 49 0 min -1,4 C 7,6 C 19,3 km/h (3 Bft)
19.03.2019 17:15 7,6 C 52 % 1026,7 hPa 0,0 mm 4,9 km/h (1 Bft) O-NO 61 0 min -1,6 C 7,1 C 14,5 km/h (3 Bft)
19.03.2019 17:00 7,7 C 51 % 1026,5 hPa 0,0 mm 4,8 km/h (1 Bft) N-NO 33 0 min -1,8 C 7,2 C 12,9 km/h (3 Bft)
19.03.2019 16:45 7,9 C 50 % 1026,3 hPa 0,0 mm 5,0 km/h (1 Bft) N-NO 23 0 min -1,9 C 7,4 C 16,1 km/h (3 Bft)
19.03.2019 16:30 7,8 C 52 % 1026,3 hPa 0,0 mm 6,7 km/h (2 Bft) O-NO 65 15 min -1,4 C 6,7 C 16,1 km/h (3 Bft)
19.03.2019 16:15 7,7 C 51 % 1026,3 hPa 0,0 mm 5,5 km/h (1 Bft) NO 38 0 min -1,8 C 7,0 C 16,1 km/h (3 Bft)
19.03.2019 16:00 7,6 C 50 % 1026,3 hPa 0,0 mm 6,6 km/h (2 Bft) N-NO 23 0 min -2,1 C 6,5 C 17,7 km/h (3 Bft)
19.03.2019 15:45 7,7 C 50 % 1026,2 hPa 0,0 mm 8,7 km/h (2 Bft) NO 39 0 min -2,1 C 6,1 C 20,9 km/h (4 Bft)
19.03.2019 15:30 7,6 C 51 % 1026,2 hPa 0,0 mm 8,6 km/h (2 Bft) N 5 0 min -1,9 C 6,1 C 20,9 km/h (4 Bft)
19.03.2019 15:15 7,8 C 51 % 1026,1 hPa 0,0 mm 7,1 km/h (2 Bft) N-NO 19 0 min -1,7 C 6,6 C 17,7 km/h (3 Bft)
19.03.2019 15:00 7,8 C 51 % 1026,1 hPa 0,0 mm 9,3 km/h (2 Bft) NW 322 0 min -1,7 C 6,1 C 20,9 km/h (4 Bft)
19.03.2019 14:45 8,1 C 50 % 1026,1 hPa 0,0 mm 6,4 km/h (2 Bft) NO 36 15 min -1,7 C 7,2 C 19,3 km/h (3 Bft)
19.03.2019 14:30 7,5 C 53 % 1026,1 hPa 0,0 mm 10,9 km/h (2 Bft) NO 51 0 min -1,4 C 5,5 C 25,7 km/h (4 Bft)
19.03.2019 14:15 7,2 C 55 % 1026,2 hPa 0,0 mm 10,6 km/h (2 Bft) N 11 15 min -1,2 C 5,2 C 24,1 km/h (4 Bft)
19.03.2019 14:00 6,8 C 59 % 1026,1 hPa 0,0 mm 12,6 km/h (3 Bft) N-NO 13 0 min -0,6 C 4,3 C 20,9 km/h (4 Bft)
19.03.2019 13:45 6,9 C 59 % 1026,2 hPa 0,0 mm 10,3 km/h (2 Bft) NO 34 0 min -0,5 C 4,9 C 22,5 km/h (4 Bft)
19.03.2019 13:30 6,7 C 60 % 1026,2 hPa 0,0 mm 6,3 km/h (2 Bft) NO 38 0 min -0,5 C 5,6 C 17,7 km/h (3 Bft)
19.03.2019 13:15 6,7 C 58 % 1026,1 hPa 0,0 mm 9,8 km/h (2 Bft) NO 38 0 min -1,0 C 4,7 C 22,5 km/h (4 Bft)
19.03.2019 13:00 6,6 C 58 % 1026,1 hPa 0,0 mm 11,8 km/h (2 Bft) NO 52 0 min -1,1 C 4,2 C 25,7 km/h (4 Bft)
19.03.2019 12:45 6,5 C 62 % 1026,0 hPa 0,0 mm 10,2 km/h (2 Bft) NO 46 0 min -0,2 C 4,4 C 22,5 km/h (4 Bft)
19.03.2019 12:30 6,7 C 62 % 1026,0 hPa 0,0 mm 8,3 km/h (2 Bft) NO 35 15 min -0,1 C 5,1 C 20,9 km/h (4 Bft)
19.03.2019 12:15 6,1 C 64 % 1025,9 hPa 0,0 mm 10,8 km/h (2 Bft) O-NO 65 0 min -0,2 C 3,8 C 20,9 km/h (4 Bft)
19.03.2019 12:00 6,5 C 65 % 1025,8 hPa 0,0 mm 4,6 km/h (1 Bft) NO 46 0 min 0,4 C 5,9 C 16,1 km/h (3 Bft)
19.03.2019 11:45 5,7 C 71 % 1025,9 hPa 0,0 mm 11,1 km/h (2 Bft) O-NO 61 15 min 0,9 C 3,3 C 24,1 km/h (4 Bft)
19.03.2019 11:30 5,9 C 70 % 1025,8 hPa 0,0 mm 9,7 km/h (2 Bft) NO 34 0 min 0,9 C 3,8 C 20,9 km/h (4 Bft)
19.03.2019 11:15 5,7 C 71 % 1025,7 hPa 0,0 mm 11,4 km/h (2 Bft) NO 55 15 min 0,9 C 3,2 C 22,5 km/h (4 Bft)
19.03.2019 11:00 5,6 C 74 % 1025,7 hPa 0,0 mm 11,8 km/h (2 Bft) NO 34 15 min 1,3 C 3,0 C 22,5 km/h (4 Bft)
19.03.2019 10:45 5,1 C 75 % 1025,9 hPa 0,0 mm 11,8 km/h (2 Bft) N-NO 16 0 min 1,0 C 2,4 C 24,1 km/h (4 Bft)
19.03.2019 10:30 4,8 C 78 % 1025,8 hPa 0,0 mm 12,2 km/h (2 Bft) N-NO 22 0 min 1,3 C 2,0 C 29,0 km/h (5 Bft)
19.03.2019 10:15 4,2 C 80 % 1025,8 hPa 0,0 mm 10,8 km/h (2 Bft) O-NO 59 0 min 1,1 C 1,5 C 22,5 km/h (4 Bft)
19.03.2019 10:00 3,8 C 81 % 1025,7 hPa 0,0 mm 12,3 km/h (3 Bft) O-NO 59 15 min 0,8 C 0,7 C 24,1 km/h (4 Bft)
19.03.2019 09:45 3,8 C 83 % 1025,5 hPa 0,0 mm 12,5 km/h (3 Bft) O-NO 59 0 min 1,2 C 0,7 C 25,7 km/h (4 Bft)
19.03.2019 09:30 3,7 C 83 % 1025,4 hPa 0,0 mm 9,4 km/h (2 Bft) NO 51 0 min 1,1 C 1,2 C 19,3 km/h (3 Bft)
19.03.2019 09:15 3,5 C 83 % 1025,2 hPa 0,0 mm 9,8 km/h (2 Bft) O-NO 65 0 min 0,9 C 0,9 C 19,3 km/h (3 Bft)
19.03.2019 09:00 3,4 C 84 % 1025,1 hPa 0,0 mm 10,1 km/h (2 Bft) NO 36 0 min 1,0 C 0,7 C 22,5 km/h (4 Bft)
19.03.2019 08:45 3,2 C 85 % 1025,1 hPa 0,0 mm 3,2 km/h (1 Bft) O-NO 60 0 min 0,9 C 3,2 C 16,1 km/h (3 Bft)
19.03.2019 08:30 3,0 C 86 % 1024,9 hPa 0,0 mm 5,2 km/h (1 Bft) NW 326 0 min 0,9 C 1,7 C 16,1 km/h (3 Bft)
19.03.2019 08:15 2,9 C 86 % 1024,8 hPa 0,0 mm 8,3 km/h (2 Bft) O-NO 61 0 min 0,8 C 0,6 C 19,3 km/h (3 Bft)
19.03.2019 08:00 2,7 C 87 % 1024,5 hPa 0,0 mm 3,1 km/h (1 Bft) N-NO 28 0 min 0,8 C 2,7 C 14,5 km/h (3 Bft)
19.03.2019 07:45 2,3 C 88 % 1024,3 hPa 0,0 mm 1,0 km/h (0 Bft) N-NO 25 0 min 0,5 C 2,3 C 11,3 km/h (2 Bft)
19.03.2019 07:30 2,2 C 89 % 1024,2 hPa 0,0 mm 3,8 km/h (1 Bft) N-NO 17 0 min 0,6 C 2,2 C 14,5 km/h (3 Bft)
19.03.2019 07:15 1,9 C 89 % 1024,1 hPa 0,0 mm 1,5 km/h (1 Bft) NO 40 0 min 0,3 C 1,9 C 12,9 km/h (3 Bft)
19.03.2019 07:00 1,7 C 89 % 1023,8 hPa 0,0 mm 0,0 km/h (0 Bft) N-NO 23 0 min 0,1 C 1,7 C 0,0 km/h (0 Bft)
19.03.2019 06:45 1,6 C 89 % 1023,7 hPa 0,0 mm 0,7 km/h (0 Bft) N-NO 24 0 min -0,0 C 1,6 C 8,0 km/h (2 Bft)
19.03.2019 06:30 1,4 C 89 % 1023,5 hPa 0,0 mm 0,0 km/h (0 Bft) NW 320 0 min -0,2 C 1,4 C 0,0 km/h (0 Bft)
19.03.2019 06:15 1,4 C 89 % 1023,4 hPa 0,0 mm 0,0 km/h (0 Bft) NW 320 0 min -0,2 C 1,4 C 0,0 km/h (0 Bft)
19.03.2019 06:00 1,3 C 89 % 1023,1 hPa 0,0 mm 0,0 km/h (0 Bft) NW 320 0 min -0,3 C 1,3 C 0,0 km/h (0 Bft)
19.03.2019 05:45 1,4 C 89 % 1023,2 hPa 0,0 mm 0,0 km/h (0 Bft) NW 320 0 min -0,2 C 1,4 C 0,0 km/h (0 Bft)
19.03.2019 05:30 1,4 C 89 % 1023,0 hPa 0,0 mm 0,0 km/h (0 Bft) NW 320 0 min -0,2 C 1,4 C 0,0 km/h (0 Bft)
19.03.2019 05:15 1,4 C 89 % 1023,0 hPa 0,0 mm 0,0 km/h (0 Bft) NW 320 0 min -0,2 C 1,4 C 0,0 km/h (0 Bft)
19.03.2019 05:00 1,3 C 88 % 1023,0 hPa 0,0 mm 0,0 km/h (0 Bft) NW 321 0 min -0,5 C 1,3 C 0,0 km/h (0 Bft)
19.03.2019 04:45 1,3 C 88 % 1022,9 hPa 0,0 mm 0,1 km/h (0 Bft) NW 320 0 min -0,5 C 1,3 C 3,2 km/h (1 Bft)
19.03.2019 04:30 1,3 C 88 % 1022,8 hPa 0,0 mm 0,0 km/h (0 Bft) N 10 0 min -0,5 C 1,3 C 0,0 km/h (0 Bft)
19.03.2019 04:15 1,3 C 88 % 1022,6 hPa 0,0 mm 0,0 km/h (0 Bft) N 11 0 min -0,5 C 1,3 C 0,0 km/h (0 Bft)
19.03.2019 04:00 1,2 C 87 % 1022,5 hPa 0,0 mm 0,0 km/h (0 Bft) N 11 0 min -0,7 C 1,2 C 0,0 km/h (0 Bft)
19.03.2019 03:45 1,7 C 85 % 1022,2 hPa 0,0 mm 0,0 km/h (0 Bft) N 11 0 min -0,5 C 1,7 C 0,0 km/h (0 Bft)
19.03.2019 03:30 2,2 C 86 % 1021,9 hPa 0,0 mm 0,1 km/h (0 Bft) N 11 0 min 0,1 C 2,2 C 4,8 km/h (1 Bft)
19.03.2019 03:15 2,0 C 87 % 1021,8 hPa 0,0 mm 0,9 km/h (0 Bft) N 5 0 min 0,1 C 2,0 C 6,4 km/h (2 Bft)
19.03.2019 03:00 1,6 C 88 % 1021,8 hPa 0,0 mm 0,4 km/h (0 Bft) N 5 0 min -0,2 C 1,6 C 8,0 km/h (2 Bft)
19.03.2019 02:45 1,3 C 87 % 1021,7 hPa 0,0 mm 0,0 km/h (0 Bft) NW 310 0 min -0,6 C 1,3 C 0,0 km/h (0 Bft)
19.03.2019 02:30 1,4 C 86 % 1021,7 hPa 0,0 mm 0,0 km/h (0 Bft) NW 309 0 min -0,7 C 1,4 C 0,0 km/h (0 Bft)
19.03.2019 02:15 1,4 C 86 % 1021,8 hPa 0,0 mm 0,0 km/h (0 Bft) NW 307 0 min -0,7 C 1,4 C 0,0 km/h (0 Bft)
19.03.2019 02:00 1,5 C 85 % 1021,6 hPa 0,0 mm 0,0 km/h (0 Bft) NW 307 0 min -0,7 C 1,5 C 0,0 km/h (0 Bft)
19.03.2019 01:45 1,9 C 84 % 1021,5 hPa 0,0 mm 0,0 km/h (0 Bft) NW 307 0 min -0,5 C 1,9 C 0,0 km/h (0 Bft)
19.03.2019 01:30 2,0 C 85 % 1021,4 hPa 0,0 mm 0,0 km/h (0 Bft) NW 307 0 min -0,3 C 2,0 C 0,0 km/h (0 Bft)
19.03.2019 01:15 1,9 C 85 % 1021,4 hPa 0,0 mm 0,0 km/h (0 Bft) NW 307 0 min -0,3 C 1,9 C 0,0 km/h (0 Bft)
19.03.2019 01:00 2,1 C 84 % 1021,3 hPa 0,0 mm 0,2 km/h (0 Bft) NW 308 0 min -0,3 C 2,1 C 8,0 km/h (2 Bft)
_ Min-Zeit 00:15 14:45 01:00 - 01:15 - - - 16:00 00:15 01:15
Minimum _ 0,5 C 50 % 1021,3 hPa - 0,0 km/h (0 Bft) - - - -2,1 C 0,5 C 0,0 km/h (0 Bft)
_ Max-Zeit 14:45 05:15 00:00 01:00 14:00 - - 10:00 11:00 17:30 10:30
Maximum _ 8,1 C 89 % 1030,3 hPa 0,0 mm 12,6 km/h
N-NO (3 Bft)
- - 15 min 1,3 C 7,6 C 29,0 km/h
NO (5 Bft)
Durchschnitt _ 4,1 C 73 % 1025,6 hPa #0,0 mm 3,7 km/h (1 Bft) NO - #0 min. -0,5 C 3,5 C 9,8 km/h (2 Bft)